Time;durP1;ratioP1;P1;durP2;ratioP2;P2;SDS_P1;SDS_P2;PMS_P1;PMS_P2;Temp;Humidity;BMP_temperature;BMP_pressure;BME280_temperature;BME280_humidity;BME280_pressure;Samples;Min_cycle;Max_cycle;Signal;HPM_P1;HPM_P2
2022/11/26 00:00:17;;;;;;;15.93;7.38;;;3.90;99.90;;;;;;5094472;28;20083;-81
2022/11/26 00:02:43;;;;;;;20.92;8.02;;;3.90;99.90;;;;;;5094871;28;20094;-81
2022/11/26 00:05:12;;;;;;;21.00;8.20;;;3.90;99.90;;;;;;5094673;28;20047;-81
2022/11/26 00:07:39;;;;;;;17.13;8.38;;;3.90;99.90;;;;;;5094664;28;20105;-81
2022/11/26 00:10:12;;;;;;;;;;;3.90;99.90;;;;;;5095113;28;20089;-82
2022/11/26 00:12:38;;;;;;;21.15;8.30;;;3.90;99.90;;;;;;5094684;28;20365;-80
2022/11/26 00:15:25;;;;;;;21.73;8.48;;;3.90;99.90;;;;;;5093028;28;20089;-82
2022/11/26 00:17:51;;;;;;;21.45;8.02;;;4.00;99.90;;;;;;5094372;28;20146;-81
2022/11/26 00:20:19;;;;;;;20.38;8.52;;;4.00;99.90;;;;;;5094000;28;20058;-81
2022/11/26 00:22:49;;;;;;;15.57;9.00;;;4.00;99.90;;;;;;5094585;28;20039;-81
2022/11/26 00:25:17;;;;;;;31.25;8.30;;;4.10;99.90;;;;;;5093705;28;20495;-81
2022/11/26 00:27:43;;;;;;;36.70;9.35;;;4.10;99.90;;;;;;5094047;28;20052;-81
2022/11/26 00:30:21;;;;;;;24.15;8.93;;;4.10;99.90;;;;;;5092969;28;20097;-81
2022/11/26 00:32:47;;;;;;;39.80;9.75;;;4.10;99.90;;;;;;5092712;28;20126;-82
2022/11/26 00:35:13;;;;;;;29.42;9.25;;;4.60;99.90;;;;;;5093916;28;20051;-80
2022/11/26 00:37:49;;;;;;;19.17;9.05;;;4.10;99.90;;;;;;5093884;28;20086;-82
2022/11/26 00:40:21;;;;;;;34.08;9.48;;;4.00;99.90;;;;;;5093548;28;20479;-82
2022/11/26 00:42:46;;;;;;;41.85;10.40;;;4.00;99.90;;;;;;5093890;28;20048;-81
2022/11/26 00:45:26;;;;;;;19.40;9.35;;;4.00;99.90;;;;;;5093746;28;20044;-81
2022/11/26 00:47:52;;;;;;;29.65;9.60;;;4.00;99.90;;;;;;5094118;28;20497;-82
2022/11/26 00:50:20;;;;;;;27.48;9.82;;;4.00;99.90;;;;;;5093695;28;20131;-82
2022/11/26 00:52:48;;;;;;;21.33;8.85;;;4.00;99.90;;;;;;5093601;28;20040;-82
2022/11/26 00:55:22;;;;;;;19.15;9.70;;;3.90;99.90;;;;;;5093711;28;20044;-81
2022/11/26 00:57:48;;;;;;;44.10;10.90;;;3.90;99.90;;;;;;5093685;28;20082;-82
2022/11/26 01:00:20;;;;;;;29.30;10.93;;;3.90;99.90;;;;;;5092782;28;20048;-81
2022/11/26 01:02:46;;;;;;;22.60;10.35;;;3.90;99.90;;;;;;5093663;28;20040;-81
2022/11/26 01:05:11;;;;;;;21.35;9.93;;;3.90;99.90;;;;;;5093597;28;20040;-81
2022/11/26 01:07:38;;;;;;;25.90;10.43;;;3.90;99.90;;;;;;5093355;28;20181;-81
2022/11/26 01:10:04;;;;;;;73.80;12.73;;;3.90;99.90;;;;;;5093456;28;20387;-82
2022/11/26 01:12:30;;;;;;;25.70;10.50;;;3.90;99.90;;;;;;5093272;28;20040;-81
2022/11/26 01:14:55;;;;;;;23.65;10.18;;;3.90;99.90;;;;;;5093442;28;20050;-83
2022/11/26 01:17:21;;;;;;;32.42;10.85;;;3.90;99.90;;;;;;5092607;28;20040;-82
2022/11/26 01:19:47;;;;;;;26.55;11.88;;;3.90;99.90;;;;;;5093485;28;20042;-82
2022/11/26 01:22:22;;;;;;;30.65;11.57;;;3.80;99.90;;;;;;5094851;28;20044;-82
2022/11/26 01:24:48;;;;;;;20.20;11.43;;;3.80;99.90;;;;;;5097550;28;20117;-80
2022/11/26 01:27:15;;;;;;;34.58;11.23;;;3.80;99.90;;;;;;5097341;28;20155;-82
2022/11/26 01:29:40;;;;;;;64.25;11.80;;;3.70;99.90;;;;;;5097417;28;20044;-82
2022/11/26 01:32:07;;;;;;;23.25;11.43;;;4.20;99.90;;;;;;5097263;28;20529;-81
2022/11/26 01:34:33;;;;;;;142.15;16.58;;;3.70;99.90;;;;;;5097536;28;20044;-82
2022/11/26 01:36:58;;;;;;;17.27;10.02;;;3.60;99.90;;;;;;5097233;28;20097;-81
2022/11/26 01:39:24;;;;;;;24.10;9.38;;;3.60;99.90;;;;;;5097184;28;20052;-80
2022/11/26 01:42:14;;;;;;;12.25;8.75;;;3.60;99.90;;;;;;5097175;28;20433;-80
2022/11/26 01:44:40;;;;;;;17.52;10.05;;;3.50;99.90;;;;;;5097215;28;20041;-82
2022/11/26 01:47:32;;;;;;;21.40;10.43;;;3.50;99.90;;;;;;5097410;28;20074;-81
2022/11/26 01:50:31;;;;;;;22.10;11.25;;;5.20;99.90;;;;;;5093466;28;20052;-82
2022/11/26 01:53:14;;;;;;;20.27;10.35;;;3.50;99.90;;;;;;5097231;28;20040;-82
2022/11/26 01:55:46;;;;;;;23.83;10.75;;;3.40;99.90;;;;;;5097325;28;20040;-81
2022/11/26 01:58:16;;;;;;;17.63;10.48;;;3.40;99.90;;;;;;5097113;28;20472;-82
2022/11/26 02:00:41;;;;;;;22.45;11.02;;;3.40;99.90;;;;;;5096909;28;20142;-80
2022/11/26 02:03:08;;;;;;;18.13;10.63;;;3.40;99.90;;;;;;5096827;28;20062;-82
2022/11/26 02:05:41;;;;;;;24.23;11.45;;;4.20;99.90;;;;;;5096665;28;20039;-83
2022/11/26 02:08:09;;;;;;;24.00;10.80;;;4.20;99.90;;;;;;5096826;28;20051;-82
2022/11/26 02:10:35;;;;;;;21.33;10.57;;;3.50;99.90;;;;;;5096572;28;20040;-82
2022/11/26 02:13:01;;;;;;;24.13;10.63;;;4.00;99.90;;;;;;5096478;28;20047;-81
2022/11/26 02:15:33;;;;;;;23.75;10.93;;;3.40;99.90;;;;;;5095205;28;20055;-82
2022/11/26 02:18:06;;;;;;;19.75;9.30;;;3.60;99.90;;;;;;5096996;28;20426;-82
2022/11/26 02:20:48;;;;;;;16.42;9.93;;;3.20;99.90;;;;;;5096418;28;20096;-82
2022/11/26 02:23:37;;;;;;;26.55;10.32;;;3.20;99.90;;;;;;5078584;28;20134;-82
2022/11/26 02:26:35;;;;;;;16.77;10.38;;;3.20;99.90;;;;;;5096323;28;20052;-82
2022/11/26 02:29:25;;;;;;;12.83;8.43;;;3.20;99.90;;;;;;5096204;28;20082;-82
2022/11/26 02:32:06;;;;;;;18.38;9.50;;;3.10;99.90;;;;;;5096444;28;20491;-83
2022/11/26 02:34:51;;;;;;;16.85;9.35;;;3.90;99.90;;;;;;5095458;28;20075;-81
2022/11/26 02:37:46;;;;;;;18.15;9.85;;;3.10;99.90;;;;;;5095907;28;20127;-82
2022/11/26 02:40:11;;;;;;;21.05;10.35;;;3.00;99.90;;;;;;5093947;28;20056;-82
2022/11/26 02:42:37;;;;;;;19.98;10.23;;;3.50;99.90;;;;;;5096360;28;20044;-81
2022/11/26 02:45:13;;;;;;;21.00;9.82;;;3.00;99.90;;;;;;5096776;28;20044;-83
2022/11/26 02:47:41;;;;;;;17.42;10.57;;;3.00;99.90;;;;;;5096449;28;20036;-82
2022/11/26 02:50:12;;;;;;;18.10;10.98;;;2.90;99.90;;;;;;5094971;28;20059;-81
2022/11/26 02:52:40;;;;;;;23.20;10.85;;;2.90;99.90;;;;;;5095919;28;20042;-81
2022/11/26 02:55:07;;;;;;;23.38;10.82;;;2.90;99.90;;;;;;5096181;28;20048;-81
2022/11/26 02:57:35;;;;;;;;;;;2.90;99.90;;;;;;5096508;28;20086;-82
2022/11/26 03:00:03;;;;;;;21.60;10.30;;;2.90;99.90;;;;;;5095067;28;20378;-82
2022/11/26 03:02:58;;;;;;;21.73;11.05;;;2.90;99.90;;;;;;5094654;28;20081;-83
2022/11/26 03:05:26;;;;;;;27.10;11.65;;;2.90;99.90;;;;;;5088237;28;20118;-83
2022/11/26 03:07:53;;;;;;;21.08;10.80;;;2.90;99.90;;;;;;5095172;28;20095;-82
2022/11/26 03:10:25;;;;;;;31.25;12.45;;;2.90;99.90;;;;;;5095647;28;20480;-82
2022/11/26 03:12:50;;;;;;;27.25;12.27;;;2.90;99.90;;;;;;5095648;28;20487;-82
2022/11/26 03:15:16;;;;;;;22.38;12.32;;;3.10;99.90;;;;;;5095738;28;20051;-83
2022/11/26 03:17:41;;;;;;;18.20;11.15;;;3.00;99.90;;;;;;5094137;28;20044;-82
2022/11/26 03:20:07;;;;;;;20.98;10.40;;;2.90;99.90;;;;;;5095216;28;20043;-82
2022/11/26 03:22:33;;;;;;;26.05;11.95;;;2.90;99.90;;;;;;5095234;28;20099;-81
2022/11/26 03:24:59;;;;;;;25.90;11.95;;;2.80;99.90;;;;;;5095083;28;20059;-81
2022/11/26 03:27:24;;;;;;;27.90;11.95;;;2.80;99.90;;;;;;5094825;28;20044;-82
2022/11/26 03:29:50;;;;;;;22.05;12.65;;;2.80;99.90;;;;;;5095208;28;20055;-82
2022/11/26 03:32:16;;;;;;;34.08;12.00;;;3.70;99.90;;;;;;5077062;28;20040;-83
2022/11/26 03:34:41;;;;;;;22.75;11.57;;;2.80;99.90;;;;;;5094863;28;20063;-83
2022/11/26 03:37:08;;;;;;;24.90;11.05;;;2.80;99.90;;;;;;5094951;28;20158;-83
2022/11/26 03:39:33;;;;;;;18.77;10.57;;;2.80;99.90;;;;;;5094813;28;20495;-82
2022/11/26 03:41:59;;;;;;;23.67;10.63;;;2.70;99.90;;;;;;5094929;28;20051;-83
2022/11/26 03:44:24;;;;;;;25.25;11.93;;;2.70;99.90;;;;;;5094682;28;20077;-82
2022/11/26 03:46:50;;;;;;;18.85;10.88;;;2.60;99.90;;;;;;5094512;28;20456;-83
2022/11/26 03:49:15;;;;;;;34.30;12.75;;;2.60;99.90;;;;;;5094633;28;20553;-82
2022/11/26 03:51:41;;;;;;;23.15;11.55;;;2.60;99.90;;;;;;5060047;28;20067;-82
2022/11/26 03:54:07;;;;;;;23.45;11.32;;;3.20;99.90;;;;;;5094597;28;20044;-82
2022/11/26 03:56:32;;;;;;;17.02;10.95;;;2.70;99.90;;;;;;5093742;28;20101;-83
2022/11/26 03:58:58;;;;;;;23.95;11.13;;;2.70;99.90;;;;;;5094580;28;20480;-83
2022/11/26 04:01:24;;;;;;;31.63;11.85;;;2.70;99.90;;;;;;5094464;28;20083;-83
2022/11/26 04:03:50;;;;;;;29.95;12.02;;;2.60;99.90;;;;;;5094384;28;20083;-83
2022/11/26 04:06:16;;;;;;;25.67;11.45;;;2.70;99.90;;;;;;5094455;28;20094;-83
2022/11/26 04:08:41;;;;;;;27.13;11.30;;;2.70;99.90;;;;;;5094259;28;20076;-83
2022/11/26 04:11:07;;;;;;;24.55;11.13;;;2.70;99.90;;;;;;5094243;28;20108;-83
2022/11/26 04:13:32;;;;;;;22.27;11.35;;;2.70;99.90;;;;;;5093151;28;20040;-83
2022/11/26 04:15:58;;;;;;;31.95;10.52;;;2.70;99.90;;;;;;5094176;28;20040;-82
2022/11/26 04:18:24;;;;;;;23.02;11.30;;;3.00;99.90;;;;;;5094212;28;20145;-82
2022/11/26 04:20:49;;;;;;;31.38;12.35;;;2.60;99.90;;;;;;5094027;28;20044;-83
2022/11/26 04:23:15;;;;;;;32.88;11.93;;;2.60;99.90;;;;;;5094151;28;20055;-82
2022/11/26 04:25:40;;;;;;;29.65;13.05;;;2.60;99.90;;;;;;5093798;28;20056;-83
2022/11/26 04:28:06;;;;;;;23.90;12.02;;;2.60;99.90;;;;;;5094178;28;20113;-83
2022/11/26 04:30:32;;;;;;;18.83;11.55;;;2.70;99.90;;;;;;5092871;28;20044;-83
2022/11/26 04:32:57;;;;;;;38.10;12.63;;;2.60;99.90;;;;;;5093812;28;20121;-82
2022/11/26 04:35:23;;;;;;;22.58;11.80;;;2.70;99.90;;;;;;5092883;28;20040;-83
2022/11/26 04:37:48;;;;;;;23.88;11.85;;;2.60;99.90;;;;;;5093708;28;20048;-83
2022/11/26 04:40:15;;;;;;;26.63;10.95;;;3.10;99.90;;;;;;5076573;28;20048;-84
2022/11/26 04:42:41;;;;;;;;;;;2.60;99.90;;;;;;5094019;28;20504;-82
2022/11/26 04:45:07;;;;;;;21.08;11.88;;;2.60;99.90;;;;;;5093806;28;20022;-83
2022/11/26 04:47:33;;;;;;;25.38;11.30;;;2.60;99.90;;;;;;5093717;28;20048;-83
2022/11/26 04:49:58;;;;;;;29.58;11.93;;;2.60;99.90;;;;;;5093609;28;20039;-81
2022/11/26 04:52:24;;;;;;;25.17;12.60;;;2.60;99.90;;;;;;5093803;28;20547;-82
2022/11/26 04:54:49;;;;;;;24.13;11.90;;;2.60;99.90;;;;;;5093576;28;20044;-81
2022/11/26 04:57:15;;;;;;;33.80;12.10;;;2.70;99.90;;;;;;5093143;28;20173;-83
2022/11/26 04:59:41;;;;;;;33.47;13.13;;;2.70;99.90;;;;;;5093797;28;20500;-82
2022/11/26 05:02:06;;;;;;;37.80;13.80;;;2.70;99.90;;;;;;5092456;28;20048;-82
2022/11/26 05:04:32;;;;;;;21.20;12.68;;;2.80;99.90;;;;;;5093612;28;20543;-82
2022/11/26 05:06:57;;;;;;;21.88;11.93;;;2.80;99.90;;;;;;5094076;28;20044;-82
2022/11/26 05:09:23;;;;;;;29.48;11.40;;;2.80;99.90;;;;;;5093605;28;20048;-82
2022/11/26 05:11:49;;;;;;;41.78;12.88;;;2.90;99.90;;;;;;5093521;28;20400;-82
2022/11/26 05:14:15;;;;;;;38.08;12.98;;;3.20;99.90;;;;;;5093750;28;20037;-83
2022/11/26 05:16:40;;;;;;;38.33;12.15;;;2.80;99.90;;;;;;5093456;28;20404;-82
2022/11/26 05:19:06;;;;;;;35.92;12.98;;;2.80;99.90;;;;;;5093530;28;20059;-83
2022/11/26 05:21:31;;;;;;;39.40;13.02;;;2.80;99.90;;;;;;5093442;28;20040;-82
2022/11/26 05:23:57;;;;;;;37.58;12.90;;;2.80;99.90;;;;;;5092284;28;20476;-82
2022/11/26 05:26:22;;;;;;;38.22;13.50;;;2.80;99.90;;;;;;5093663;28;20075;-83
2022/11/26 05:28:48;;;;;;;36.10;12.63;;;2.80;99.90;;;;;;5093575;28;20040;-82
2022/11/26 05:31:14;;;;;;;37.75;13.43;;;2.80;99.90;;;;;;5093295;28;20044;-83
2022/11/26 05:33:39;;;;;;;39.58;13.00;;;2.80;99.90;;;;;;5093363;28;20548;-83
2022/11/26 05:36:05;;;;;;;52.85;14.32;;;2.80;99.90;;;;;;5093042;28;20043;-83
2022/11/26 05:38:31;;;;;;;93.30;15.88;;;2.80;99.90;;;;;;5093283;28;20051;-82
2022/11/26 05:40:56;;;;;;;59.17;15.15;;;2.80;99.90;;;;;;5093808;28;20079;-81
2022/11/26 05:43:22;;;;;;;72.22;16.08;;;2.90;99.90;;;;;;5093160;28;20483;-83
2022/11/26 05:45:47;;;;;;;142.23;18.83;;;2.90;99.90;;;;;;5092966;28;20044;-82
2022/11/26 05:48:13;;;;;;;106.20;14.65;;;2.90;99.90;;;;;;5091657;28;20446;-83
2022/11/26 05:50:39;;;;;;;146.68;17.52;;;3.00;99.90;;;;;;5092987;28;20044;-83
2022/11/26 05:53:05;;;;;;;107.97;16.20;;;3.00;99.90;;;;;;5093044;28;20069;-84
2022/11/26 05:55:30;;;;;;;84.13;15.80;;;3.10;99.90;;;;;;5093047;28;20052;-82
2022/11/26 05:57:56;;;;;;;82.88;14.80;;;3.10;99.90;;;;;;5093032;28;20099;-80
2022/11/26 06:00:22;;;;;;;53.58;13.95;;;3.10;99.90;;;;;;5092671;28;20044;-81
2022/11/26 06:02:48;;;;;;;118.55;15.23;;;3.30;99.90;;;;;;5092936;28;20051;-85
2022/11/26 06:05:13;;;;;;;51.40;14.82;;;3.20;99.90;;;;;;5092893;28;20048;-82
2022/11/26 06:07:39;;;;;;;44.20;12.90;;;3.20;99.90;;;;;;5075087;28;20097;-80
2022/11/26 06:10:05;;;;;;;57.55;15.10;;;3.20;99.90;;;;;;5096468;28;20040;-82
2022/11/26 06:12:31;;;;;;;152.40;19.35;;;3.20;99.90;;;;;;5095354;28;20044;-80
2022/11/26 06:14:56;;;;;;;59.83;15.98;;;3.20;99.90;;;;;;5096519;28;20519;-80
2022/11/26 06:17:22;;;;;;;67.68;15.88;;;3.30;99.90;;;;;;5111845;28;20036;-79
2022/11/26 06:19:48;;;;;;;56.90;17.13;;;3.30;99.90;;;;;;5119513;28;20036;-81
2022/11/26 06:22:13;;;;;;;78.55;19.73;;;4.10;99.90;;;;;;5119747;28;20020;-81
2022/11/26 06:24:39;;;;;;;46.67;20.25;;;3.30;99.90;;;;;;5119366;28;20059;-80
2022/11/26 06:27:04;;;;;;;92.78;17.63;;;3.30;99.90;;;;;;5119544;28;20052;-79
2022/11/26 06:29:30;;;;;;;68.68;21.20;;;3.30;99.90;;;;;;5119518;28;20107;-81
2022/11/26 06:31:56;;;;;;;130.98;26.33;;;3.30;99.90;;;;;;5109334;28;20036;-80
2022/11/26 06:34:21;;;;;;;67.05;20.05;;;3.30;99.90;;;;;;5096097;28;20044;-80
2022/11/26 06:36:47;;;;;;;85.93;30.95;;;3.40;99.90;;;;;;5095788;28;20051;-83
2022/11/26 06:39:13;;;;;;;152.35;37.10;;;3.40;99.90;;;;;;5096396;28;20475;-82
2022/11/26 06:41:39;;;;;;;87.90;28.15;;;3.40;99.90;;;;;;5095980;28;20044;-81
2022/11/26 06:44:04;;;;;;;71.35;26.23;;;3.40;99.90;;;;;;5095971;28;20044;-80
2022/11/26 06:46:33;;;;;;;67.47;25.02;;;3.40;99.90;;;;;;5095929;28;20051;-82
2022/11/26 06:49:05;;;;;;;45.53;17.83;;;3.40;99.90;;;;;;5094693;28;20156;-80
2022/11/26 06:51:32;;;;;;;63.13;18.05;;;3.40;99.90;;;;;;5095739;28;20058;-80
2022/11/26 06:53:58;;;;;;;40.08;16.45;;;3.50;99.90;;;;;;5096087;28;20369;-78
2022/11/26 06:56:23;;;;;;;64.70;19.52;;;3.50;99.90;;;;;;5095608;28;20040;-78
2022/11/26 06:58:53;;;;;;;55.80;17.92;;;3.50;99.90;;;;;;5095683;28;20044;-81
2022/11/26 07:01:24;;;;;;;58.85;19.42;;;3.60;99.90;;;;;;5095637;28;20068;-80
2022/11/26 07:03:50;;;;;;;71.22;20.73;;;3.60;99.90;;;;;;5095729;28;20083;-82
2022/11/26 07:06:20;;;;;;;69.72;19.48;;;3.60;99.90;;;;;;5095560;28;20070;-80
2022/11/26 07:08:47;;;;;;;53.53;18.05;;;3.60;99.90;;;;;;5095546;28;20044;-82
2022/11/26 07:11:13;;;;;;;53.45;18.95;;;3.60;99.90;;;;;;5095481;28;20089;-78
2022/11/26 07:13:39;;;;;;;63.17;20.10;;;3.70;99.90;;;;;;5095411;28;20126;-77
2022/11/26 07:16:05;;;;;;;91.47;20.88;;;3.70;99.90;;;;;;5095408;28;20155;-80
2022/11/26 07:18:31;;;;;;;84.87;20.00;;;3.70;99.90;;;;;;5094882;28;20054;-79
2022/11/26 07:21:02;;;;;;;54.13;19.10;;;3.80;99.90;;;;;;5095047;28;20044;-81
2022/11/26 07:23:27;;;;;;;95.35;21.05;;;3.80;99.90;;;;;;5094314;28;20468;-82
2022/11/26 07:25:53;;;;;;;76.10;23.17;;;3.80;99.90;;;;;;5094845;28;20066;-78
2022/11/26 07:28:18;;;;;;;88.28;24.58;;;3.80;99.90;;;;;;5095061;28;20040;-80
2022/11/26 07:30:44;;;;;;;103.45;23.80;;;3.90;99.90;;;;;;5094812;28;20117;-81
2022/11/26 07:33:10;;;;;;;108.53;24.25;;;3.90;99.90;;;;;;5094797;28;20040;-81
2022/11/26 07:35:37;;;;;;;73.60;24.15;;;3.90;99.90;;;;;;5094031;28;20064;-79
2022/11/26 07:38:02;;;;;;;57.38;22.40;;;3.90;99.90;;;;;;5094805;28;20088;-76
2022/11/26 07:40:28;;;;;;;82.38;22.85;;;3.90;99.90;;;;;;5094896;28;20136;-76
2022/11/26 07:42:53;;;;;;;56.85;21.20;;;4.00;99.90;;;;;;5094898;28;20047;-78
2022/11/26 07:45:19;;;;;;;71.03;21.77;;;4.00;99.90;;;;;;5094829;28;20101;-82
2022/11/26 07:47:44;;;;;;;49.58;19.92;;;4.10;99.90;;;;;;5094599;28;20361;-79
2022/11/26 07:50:10;;;;;;;69.03;20.88;;;4.10;99.90;;;;;;5094746;28;20051;-82
2022/11/26 07:52:36;;;;;;;68.82;21.85;;;4.10;99.90;;;;;;5093413;28;20082;-81
2022/11/26 07:55:01;;;;;;;83.95;21.27;;;4.10;99.90;;;;;;5094540;28;20078;-82
2022/11/26 07:57:27;;;;;;;56.05;20.25;;;4.20;99.90;;;;;;5094361;28;20040;-80
2022/11/26 07:59:52;;;;;;;52.42;19.63;;;4.20;99.90;;;;;;5094384;28;20075;-81
2022/11/26 08:02:18;;;;;;;72.32;21.90;;;4.20;99.90;;;;;;5102164;28;20051;-79
2022/11/26 08:04:44;;;;;;;49.58;18.67;;;4.20;99.90;;;;;;5117902;28;20065;-79
2022/11/26 08:07:09;;;;;;;73.88;21.23;;;4.30;99.90;;;;;;5114729;28;20548;-81
2022/11/26 08:09:35;;;;;;;106.80;21.27;;;4.30;99.90;;;;;;5110350;28;20089;-77
2022/11/26 08:12:00;;;;;;;48.10;19.70;;;4.30;99.90;;;;;;5115134;28;20055;-81
2022/11/26 08:14:26;;;;;;;53.63;22.15;;;4.40;99.90;;;;;;5116575;28;20051;-78
2022/11/26 08:16:51;;;;;;;70.50;20.98;;;4.40;99.90;;;;;;5113681;28;20055;-80
2022/11/26 08:19:17;;;;;;;48.40;18.83;;;5.30;99.90;;;;;;5093025;28;20055;-77
2022/11/26 08:21:43;;;;;;;48.95;19.55;;;4.50;99.90;;;;;;5094298;28;20036;-81
2022/11/26 08:24:13;;;;;;;47.15;20.23;;;4.50;99.90;;;;;;5092714;28;20100;-81
2022/11/26 08:26:40;;;;;;;66.80;21.48;;;4.50;99.90;;;;;;5094247;28;20138;-81
2022/11/26 08:29:05;;;;;;;57.78;21.00;;;5.10;99.90;;;;;;5093063;28;20096;-79
2022/11/26 08:31:31;;;;;;;82.05;22.25;;;4.60;99.90;;;;;;5092977;28;20127;-78
2022/11/26 08:33:58;;;;;;;71.28;23.50;;;4.70;99.90;;;;;;5114466;28;20074;-77
2022/11/26 08:36:25;;;;;;;56.55;22.10;;;4.70;99.90;;;;;;5114930;28;20094;-75
2022/11/26 08:38:50;;;;;;;65.43;22.20;;;4.70;99.90;;;;;;5110337;28;20059;-76
2022/11/26 08:41:16;;;;;;;74.43;23.50;;;4.70;99.90;;;;;;5113686;28;20030;-78
2022/11/26 08:43:41;;;;;;;51.20;21.83;;;4.80;99.90;;;;;;5115579;28;20056;-77
2022/11/26 08:46:08;;;;;;;53.85;22.10;;;4.80;99.90;;;;;;5114309;28;20044;-81
2022/11/26 08:48:34;;;;;;;;;;;4.90;99.90;;;;;;5100504;28;20131;-77
2022/11/26 08:51:02;;;;;;;84.55;24.05;;;4.90;99.90;;;;;;5093981;28;19982;-78
2022/11/26 08:53:30;;;;;;;81.50;24.50;;;5.00;99.90;;;;;;5093538;28;20080;-77
2022/11/26 08:55:59;;;;;;;68.78;23.10;;;5.00;99.90;;;;;;5093726;28;20055;-78
2022/11/26 08:58:25;;;;;;;64.45;23.40;;;5.10;99.90;;;;;;5093773;28;20047;-79
2022/11/26 09:00:51;;;;;;;67.75;22.92;;;5.20;99.90;;;;;;5093472;28;20044;-79
2022/11/26 09:03:16;;;;;;;64.40;23.52;;;5.20;99.90;;;;;;5093529;28;20086;-79
2022/11/26 09:05:42;;;;;;;83.63;24.20;;;5.20;99.90;;;;;;5092144;28;20036;-78
2022/11/26 09:08:07;;;;;;;63.05;23.65;;;5.40;99.90;;;;;;5091386;28;20055;-78
2022/11/26 09:10:33;;;;;;;73.55;23.77;;;5.30;99.90;;;;;;5091108;28;20079;-77
2022/11/26 09:12:58;;;;;;;100.05;24.98;;;5.40;99.90;;;;;;5090922;28;20477;-78
2022/11/26 09:15:24;;;;;;;89.30;24.75;;;5.40;99.90;;;;;;5091206;28;20247;-78
2022/11/26 09:17:49;;;;;;;55.33;22.83;;;5.40;99.90;;;;;;5090184;28;20048;-78
2022/11/26 09:20:15;;;;;;;75.03;23.15;;;5.50;99.90;;;;;;5091847;28;20140;-78
2022/11/26 09:22:41;;;;;;;55.30;22.27;;;5.60;99.90;;;;;;5093406;28;20040;-78
2022/11/26 09:25:06;;;;;;;67.40;23.33;;;5.50;99.90;;;;;;5093308;28;20484;-78
2022/11/26 09:27:32;;;;;;;80.60;23.55;;;5.50;99.90;;;;;;5093440;28;20043;-79
2022/11/26 09:29:57;;;;;;;75.10;23.80;;;5.60;99.90;;;;;;5093332;28;20083;-78
2022/11/26 09:32:23;;;;;;;108.25;25.75;;;5.60;99.90;;;;;;5092960;28;20044;-78
2022/11/26 09:34:50;;;;;;;69.47;23.20;;;5.60;99.90;;;;;;5093386;28;20051;-78
2022/11/26 09:37:17;;;;;;;63.10;23.13;;;5.60;99.90;;;;;;5093387;28;20044;-78
2022/11/26 09:39:43;;;;;;;58.72;23.48;;;5.70;99.90;;;;;;5093584;28;20040;-78
2022/11/26 09:42:45;;;;;;;63.47;24.45;;;5.70;99.90;;;;;;5093307;28;20039;-78
2022/11/26 09:45:36;;;;;;;79.20;25.08;;;5.80;99.90;;;;;;5096377;28;20424;-78
2022/11/26 09:48:04;;;;;;;56.67;23.83;;;5.80;99.90;;;;;;5097017;28;20392;-77
2022/11/26 09:50:34;;;;;;;64.78;24.13;;;5.90;99.90;;;;;;5097238;28;20146;-77
2022/11/26 09:53:10;;;;;;;60.15;25.50;;;5.90;99.90;;;;;;5096910;28;20058;-79
2022/11/26 09:55:37;;;;;;;70.78;24.17;;;5.90;99.90;;;;;;5097490;28;20048;-78
2022/11/26 09:58:40;;;;;;;83.95;27.40;;;5.90;99.90;;;;;;5097232;28;20048;-78
2022/11/26 10:01:13;;;;;;;55.97;24.80;;;6.00;99.90;;;;;;5096795;28;20047;-77
2022/11/26 10:03:38;;;;;;;67.75;26.10;;;6.00;99.90;;;;;;5096738;28;20040;-78
2022/11/26 10:06:45;;;;;;;64.25;25.98;;;6.10;99.90;;;;;;5097169;28;20097;-78
2022/11/26 10:09:25;;;;;;;80.05;27.42;;;6.10;99.90;;;;;;5096238;28;20522;-77
2022/11/26 10:11:56;;;;;;;71.20;28.77;;;6.20;99.90;;;;;;5095539;28;20597;-78
2022/11/26 10:14:38;;;;;;;71.60;26.27;;;6.20;99.90;;;;;;5096533;28;20048;-77
2022/11/26 10:17:28;;;;;;;80.15;28.20;;;6.20;99.90;;;;;;5096555;28;20043;-78
2022/11/26 10:20:03;;;;;;;79.18;28.80;;;6.30;99.90;;;;;;5096502;28;20083;-79
2022/11/26 10:22:46;;;;;;;72.95;29.05;;;6.30;99.90;;;;;;5096187;28;20086;-78
2022/11/26 10:25:22;;;;;;;85.05;30.67;;;6.30;99.90;;;;;;5096300;28;20067;-80
2022/11/26 10:27:49;;;;;;;68.68;28.38;;;6.30;99.90;;;;;;5096076;28;20047;-79
2022/11/26 10:30:18;;;;;;;77.32;28.35;;;6.40;99.90;;;;;;5095979;28;20456;-82
2022/11/26 10:32:45;;;;;;;78.25;30.08;;;6.40;99.90;;;;;;5078129;28;20032;-77
2022/11/26 10:35:17;;;;;;;77.15;29.98;;;6.50;99.90;;;;;;5096806;28;20062;-79
2022/11/26 10:37:42;;;;;;;77.38;27.63;;;6.50;99.90;;;;;;5095793;28;20561;-82
2022/11/26 10:40:24;;;;;;;91.43;30.55;;;6.50;99.90;;;;;;5096371;28;20084;-82
2022/11/26 10:43:07;;;;;;;71.60;28.83;;;6.50;99.90;;;;;;5096082;28;20040;-75
2022/11/26 10:45:44;;;;;;;68.22;29.27;;;6.60;99.90;;;;;;5096000;28;20055;-78
2022/11/26 10:48:27;;;;;;;71.53;29.05;;;6.50;99.90;;;;;;5096401;28;20070;-79
2022/11/26 10:51:17;;;;;;;74.95;29.27;;;6.60;99.90;;;;;;5096213;28;20087;-78
2022/11/26 10:53:53;;;;;;;72.15;28.70;;;6.60;99.90;;;;;;5095718;28;20122;-77
2022/11/26 10:56:24;;;;;;;87.93;29.70;;;6.60;99.90;;;;;;5095567;28;20047;-81
2022/11/26 10:58:51;;;;;;;78.07;28.50;;;6.70;99.90;;;;;;5094640;28;20040;-76
2022/11/26 11:01:17;;;;;;;83.43;29.95;;;6.70;99.90;;;;;;5095915;28;20122;-79
2022/11/26 11:03:49;;;;;;;77.60;31.65;;;6.80;99.90;;;;;;5095614;28;20068;-76
2022/11/26 11:06:18;;;;;;;74.80;29.02;;;6.80;99.90;;;;;;5099084;28;20048;-77
2022/11/26 11:08:48;;;;;;;90.68;29.35;;;6.80;99.90;;;;;;5096098;28;20113;-77
2022/11/26 11:11:24;;;;;;;78.35;29.85;;;6.90;99.90;;;;;;5095426;28;20044;-76
2022/11/26 11:13:50;;;;;;;90.78;31.95;;;6.90;99.90;;;;;;5095382;28;20131;-77
2022/11/26 11:16:42;;;;;;;77.73;29.63;;;6.90;99.90;;;;;;5095449;28;20127;-77
2022/11/26 11:19:22;;;;;;;75.75;30.48;;;7.00;99.90;;;;;;5085911;28;20495;-79
2022/11/26 11:21:48;;;;;;;83.75;30.33;;;7.00;99.90;;;;;;5095536;28;20044;-78
2022/11/26 11:24:17;;;;;;;86.40;31.48;;;7.10;99.90;;;;;;5094790;28;20495;-76
2022/11/26 11:26:45;;;;;;;79.20;31.77;;;7.10;99.90;;;;;;5095348;28;20052;-82
2022/11/26 11:29:35;;;;;;;75.57;29.38;;;7.10;99.90;;;;;;5095069;28;20112;-76
2022/11/26 11:32:03;;;;;;;69.97;30.13;;;7.20;99.90;;;;;;5094939;28;20040;-77
2022/11/26 11:34:37;;;;;;;82.20;31.17;;;7.30;99.90;;;;;;5093782;28;20048;-76
2022/11/26 11:37:12;;;;;;;69.38;30.48;;;7.30;99.90;;;;;;5094964;28;20036;-78
2022/11/26 11:39:38;;;;;;;79.72;30.13;;;7.40;99.90;;;;;;5094790;28;20454;-79
2022/11/26 11:42:12;;;;;;;72.20;29.38;;;8.10;99.90;;;;;;5094598;28;20040;-77
2022/11/26 11:44:45;;;;;;;83.40;32.22;;;7.40;99.90;;;;;;5095049;28;20047;-79
2022/11/26 11:47:19;;;;;;;99.40;35.83;;;7.50;99.90;;;;;;5094824;28;20059;-78
2022/11/26 11:50:04;;;;;;;70.35;28.05;;;7.50;99.90;;;;;;5094872;28;20085;-82
2022/11/26 11:52:48;;;;;;;71.28;27.80;;;7.50;99.90;;;;;;5094593;28;20135;-77
2022/11/26 11:55:46;;;;;;;61.00;27.13;;;7.50;99.90;;;;;;5094555;28;20044;-78
2022/11/26 11:58:25;;;;;;;72.97;26.75;;;7.60;99.90;;;;;;5094675;28;20093;-79
2022/11/26 12:01:25;;;;;;;64.65;27.02;;;7.60;99.90;;;;;;5094950;28;20097;-78
2022/11/26 12:04:08;;;;;;;65.75;28.10;;;7.60;99.90;;;;;;5094554;28;20052;-79
2022/11/26 12:06:58;;;;;;;65.18;26.92;;;7.60;99.90;;;;;;5094264;28;20161;-81
2022/11/26 12:09:39;;;;;;;63.55;27.08;;;7.70;99.90;;;;;;5094743;28;20044;-76
2022/11/26 12:12:26;;;;;;;63.10;26.98;;;7.70;99.90;;;;;;5093450;28;20050;-77
2022/11/26 12:15:04;;;;;;;64.10;27.13;;;7.70;99.90;;;;;;5094463;28;20044;-79
2022/11/26 12:17:42;;;;;;;68.40;26.98;;;7.70;99.90;;;;;;5094019;28;20499;-78
2022/11/26 12:20:23;;;;;;;62.72;26.70;;;7.80;99.90;;;;;;5094616;28;20055;-77
2022/11/26 12:23:11;;;;;;;70.47;26.52;;;7.80;99.90;;;;;;5093949;28;20040;-78
2022/11/26 12:25:37;;;;;;;55.28;25.73;;;7.80;99.90;;;;;;5094454;28;20060;-77
2022/11/26 12:28:14;;;;;;;58.87;26.03;;;7.70;99.90;;;;;;5093630;28;20052;-76
2022/11/26 12:31:02;;;;;;;64.23;25.50;;;7.80;99.90;;;;;;5094537;28;20396;-82
2022/11/26 12:33:44;;;;;;;52.33;25.27;;;7.80;99.90;;;;;;5093978;28;20046;-78
2022/11/26 12:36:43;;;;;;;65.38;25.95;;;7.80;99.90;;;;;;5093919;28;20051;-77
2022/11/26 12:39:18;;;;;;;58.35;25.73;;;7.80;99.90;;;;;;5094216;28;20044;-78
2022/11/26 12:42:01;;;;;;;51.67;24.00;;;7.80;99.90;;;;;;5094119;28;20040;-79
2022/11/26 12:44:38;;;;;;;52.17;23.60;;;7.80;99.90;;;;;;5093810;28;20083;-83
2022/11/26 12:47:25;;;;;;;60.88;24.02;;;7.80;99.90;;;;;;5094007;28;20140;-83
2022/11/26 12:49:53;;;;;;;57.65;23.38;;;7.90;99.90;;;;;;5094176;28;20047;-80
2022/11/26 12:52:27;;;;;;;47.13;22.92;;;7.80;99.90;;;;;;5100556;28;20051;-79